Time;durP1;ratioP1;P1;durP2;ratioP2;P2;SDS_P1;SDS_P2;PMS_P1;PMS_P2;Temp;Humidity;BMP_temperature;BMP_pressure;BME280_temperature;BME280_humidity;BME280_pressure;Samples;Min_cycle;Max_cycle;Signal;HPM_P1;HPM_P2
2023/02/03 00:01:34;;;;;;;5.53;1.48;;;;;;;9.58;96.09;101804.72;5009964;28;20467;-45
2023/02/03 00:04:01;;;;;;;6.50;1.52;;;;;;;9.57;96.10;101803.09;5010303;28;20447;-46
2023/02/03 00:06:29;;;;;;;10.27;1.20;;;;;;;9.57;96.30;101817.72;5010390;28;20136;-47
2023/02/03 00:08:58;;;;;;;7.75;1.75;;;;;;;9.57;96.17;101812.19;5009580;28;20040;-52
2023/02/03 00:11:25;;;;;;;6.07;2.30;;;;;;;9.56;96.29;101815.25;5010972;28;20046;-48
2023/02/03 00:13:52;;;;;;;10.02;3.28;;;;;;;9.56;96.14;101835.44;5010333;28;20392;-46
2023/02/03 00:16:18;;;;;;;9.40;1.60;;;;;;;9.55;96.31;101821.94;5009056;28;20088;-46
2023/02/03 00:18:45;;;;;;;5.45;1.65;;;;;;;9.55;96.42;101825.53;5008516;28;20042;-45
2023/02/03 00:21:13;;;;;;;9.43;1.90;;;;;;;9.54;96.53;101834.13;5009816;28;20056;-46
2023/02/03 00:23:41;;;;;;;12.20;2.25;;;;;;;9.53;96.72;101813.94;5009192;28;20516;-49
2023/02/03 00:26:09;;;;;;;8.82;1.60;;;;;;;9.54;96.68;101820.28;5010272;28;20377;-47
2023/02/03 00:28:36;;;;;;;8.05;2.65;;;;;;;9.53;96.76;101826.97;5009604;28;20038;-44
2023/02/03 00:31:03;;;;;;;10.63;1.60;;;;;;;9.53;96.73;101838.81;5009729;28;20363;-49
2023/02/03 00:33:32;;;;;;;6.90;1.65;;;;;;;9.53;96.81;101840.78;5013809;28;20049;-50
2023/02/03 00:36:04;;;;;;;5.75;1.65;;;;;;;9.52;96.74;101833.63;5016649;28;20045;-44
2023/02/03 00:38:31;;;;;;;8.55;1.60;;;;;;;9.52;96.91;101830.84;5010170;28;20049;-44
2023/02/03 00:40:58;;;;;;;12.68;2.17;;;;;;;9.51;96.96;101826.44;5003715;28;20053;-46
2023/02/03 00:43:25;;;;;;;6.03;1.35;;;;;;;9.48;97.05;101829.81;5009293;28;20044;-50
2023/02/03 00:45:51;;;;;;;4.85;2.13;;;;;;;9.48;97.12;101824.28;5009473;28;20046;-47
2023/02/03 00:48:19;;;;;;;6.25;1.75;;;;;;;9.47;97.13;101819.91;5009682;28;20058;-50
2023/02/03 00:50:46;;;;;;;5.82;1.85;;;;;;;9.47;97.21;101819.91;5009103;28;20053;-44
2023/02/03 00:53:13;;;;;;;9.63;1.80;;;;;;;9.47;97.36;101837.31;5009281;28;20111;-46
2023/02/03 00:55:42;;;;;;;8.23;3.50;;;;;;;9.49;97.27;101837.00;5010139;28;20690;-45
2023/02/03 00:58:09;;;;;;;3.65;1.42;;;;;;;9.49;97.39;101854.41;5020892;28;20087;-45
2023/02/03 01:00:36;;;;;;;4.88;1.38;;;;;;;9.51;97.38;101835.56;5009057;28;20522;-47
2023/02/03 01:03:03;;;;;;;13.30;3.95;;;;;;;9.52;97.45;101839.16;5009296;28;20044;-45
2023/02/03 01:05:30;;;;;;;6.22;1.80;;;;;;;9.52;97.43;101839.16;5009183;28;20156;-44
2023/02/03 01:07:57;;;;;;;7.82;1.33;;;;;;;9.52;97.59;101844.66;5009153;28;20496;-45
2023/02/03 01:10:23;;;;;;;13.82;1.73;;;;;;;9.51;97.69;101848.56;5009674;28;20476;-53
2023/02/03 01:12:51;;;;;;;7.47;1.92;;;;;;;9.50;97.66;101846.94;5008343;28;20053;-44
2023/02/03 01:15:17;;;;;;;13.88;3.08;;;;;;;9.50;97.90;101838.66;5008685;28;20492;-46
2023/02/03 01:17:44;;;;;;;10.27;1.70;;;;;;;9.50;97.89;101853.28;5009332;28;20566;-49
2023/02/03 01:20:12;;;;;;;8.73;2.05;;;;;;;9.50;98.02;101852.47;5008605;28;20060;-47
2023/02/03 01:22:39;;;;;;;8.48;1.55;;;;;;;9.48;98.15;101865.75;4998504;28;20058;-45
2023/02/03 01:25:06;;;;;;;12.57;2.22;;;;;;;9.48;98.25;101860.22;5008824;28;20050;-45
2023/02/03 01:27:33;;;;;;;7.18;2.22;;;;;;;9.45;98.22;101856.13;5007995;28;20061;-48
2023/02/03 01:30:00;;;;;;;8.15;2.30;;;;;;;9.46;98.59;101863.31;5012825;28;20056;-44
2023/02/03 01:32:27;;;;;;;10.60;1.63;;;;;;;9.47;98.82;101872.44;5018044;28;20077;-45
2023/02/03 01:34:53;;;;;;;11.23;2.45;;;;;;;9.45;98.76;101872.72;5020067;28;20214;-46
2023/02/03 01:37:20;;;;;;;9.85;2.22;;;;;;;9.46;98.81;101876.31;5009371;28;20042;-51
2023/02/03 01:39:47;;;;;;;7.30;2.15;;;;;;;9.46;98.94;101884.59;5008735;28;20045;-44
2023/02/03 01:42:14;;;;;;;7.00;2.00;;;;;;;9.46;99.16;101885.44;5008722;28;20057;-51
2023/02/03 01:44:44;;;;;;;10.43;2.90;;;;;;;9.45;99.24;101883.00;5008623;28;20041;-48
2023/02/03 01:47:30;;;;;;;10.75;2.40;;;;;;;9.45;99.33;101888.53;5009868;28;20049;-47
2023/02/03 01:50:02;;;;;;;10.95;2.00;;;;;;;9.43;99.39;101890.75;4997950;28;20046;-44
2023/02/03 01:52:31;;;;;;;10.93;1.95;;;;;;;9.43;99.60;101901.81;5009054;28;20085;-44
2023/02/03 01:55:01;;;;;;;9.48;1.98;;;;;;;9.41;99.85;101899.38;5008060;28;20038;-44
2023/02/03 01:57:47;;;;;;;4.88;1.60;;;;;;;9.40;100.00;101902.44;5008406;28;20046;-44
2023/02/03 02:00:14;;;;;;;7.95;2.72;;;;;;;9.39;100.00;101906.31;5009104;28;20064;-44
2023/02/03 02:02:44;;;;;;;8.23;3.10;;;;;;;9.39;100.00;101914.63;5008276;28;20076;-44
2023/02/03 02:05:34;;;;;;;10.20;1.77;;;;;;;9.38;100.00;101911.03;5009742;28;20070;-45
2023/02/03 02:08:03;;;;;;;15.00;3.28;;;;;;;9.39;100.00;101907.16;5009191;28;20050;-44
2023/02/03 02:10:30;;;;;;;13.55;2.00;;;;;;;9.38;100.00;101896.38;5009587;28;20060;-44
2023/02/03 02:12:59;;;;;;;14.63;2.03;;;;;;;9.38;100.00;101913.78;5008746;28;20054;-45
2023/02/03 02:15:39;;;;;;;8.02;2.45;;;;;;;9.38;100.00;101911.03;5008786;28;20077;-44
2023/02/03 02:18:23;;;;;;;9.57;2.67;;;;;;;9.38;100.00;101901.91;5008668;28;20049;-44
2023/02/03 02:21:05;;;;;;;12.10;2.17;;;;;;;9.37;100.00;101916.88;5008744;28;20564;-44
2023/02/03 02:23:52;;;;;;;7.28;1.70;;;;;;;9.36;100.00;101915.22;5008576;28;20513;-44
2023/02/03 02:26:51;;;;;;;10.25;2.60;;;;;;;9.36;100.00;101916.06;5008535;28;20487;-48
2023/02/03 02:29:42;;;;;;;6.18;2.53;;;;;;;9.35;100.00;101921.88;4986903;28;20069;-46
2023/02/03 02:32:23;;;;;;;17.13;5.55;;;;;;;9.35;100.00;101913.59;4997645;28;20088;-44
2023/02/03 02:35:13;;;;;;;11.90;2.30;;;;;;;9.34;100.00;101911.97;5023450;28;20060;-44
2023/02/03 02:38:06;;;;;;;11.95;2.33;;;;;;;9.32;100.00;101915.03;5012354;28;20054;-45
2023/02/03 02:40:40;;;;;;;9.80;2.20;;;;;;;9.33;100.00;101924.13;5011634;28;20149;-46
2023/02/03 02:43:21;;;;;;;13.38;3.28;;;;;;;9.32;100.00;101922.53;5011819;28;20145;-45
2023/02/03 02:45:49;;;;;;;11.77;3.15;;;;;;;9.33;100.00;101929.66;5011790;28;20048;-44
2023/02/03 02:48:35;;;;;;;16.17;3.03;;;;;;;9.32;100.00;101922.53;5011837;28;20042;-45
2023/02/03 02:51:06;;;;;;;13.93;2.47;;;;;;;9.32;100.00;101928.84;5011932;28;20447;-44
2023/02/03 02:53:37;;;;;;;7.55;2.63;;;;;;;9.33;100.00;101924.13;5012248;28;20049;-44
2023/02/03 02:56:07;;;;;;;9.88;2.67;;;;;;;9.33;100.00;101932.44;5011898;28;20038;-50
2023/02/03 02:58:40;;;;;;;18.77;4.97;;;;;;;9.34;100.00;101932.13;5011956;28;20048;-44
2023/02/03 03:01:10;;;;;;;16.08;2.47;;;;;;;9.34;100.00;101932.13;5052079;23;20061;-44
2023/02/03 03:03:41;;;;;;;13.23;3.63;;;;;;;9.34;100.00;101931.31;5051638;28;20088;-44
2023/02/03 03:06:14;;;;;;;13.65;4.28;;;;;;;9.35;100.00;101931.00;5051359;28;20048;-52
2023/02/03 03:08:44;;;;;;;10.35;2.55;;;;;;;9.35;100.00;101928.22;5050651;28;20102;-49
2023/02/03 03:11:11;;;;;;;5.85;2.25;;;;;;;9.35;100.00;101931.00;5050018;28;20041;-45
2023/02/03 03:13:44;;;;;;;9.90;2.47;;;;;;;9.36;100.00;101923.53;5051126;28;20045;-44
2023/02/03 03:16:13;;;;;;;10.65;2.10;;;;;;;9.37;100.00;101922.41;5051025;28;20055;-54
2023/02/03 03:18:48;;;;;;;9.48;2.20;;;;;;;9.36;100.00;101918.81;5050844;28;20068;-44
2023/02/03 03:21:25;;;;;;;6.57;1.83;;;;;;;9.37;100.00;101914.13;5050501;28;20581;-44
2023/02/03 03:23:56;;;;;;;11.02;2.50;;;;;;;9.37;100.00;101919.66;5036250;28;20498;-44
2023/02/03 03:26:34;;;;;;;10.70;2.58;;;;;;;9.38;100.00;101926.78;5050166;28;20041;-45
2023/02/03 03:29:04;;;;;;;10.52;2.13;;;;;;;9.38;100.00;101926.78;5051539;28;20719;-45
2023/02/03 03:31:31;;;;;;;8.52;1.92;;;;;;;9.39;100.00;101932.03;5050560;28;20449;-44
2023/02/03 03:33:58;;;;;;;38.55;6.15;;;;;;;9.39;100.00;101929.25;5058616;28;20047;-44
2023/02/03 03:36:29;;;;;;;13.25;3.42;;;;;;;9.40;100.00;101924.56;5054081;28;20037;-44
2023/02/03 03:39:14;;;;;;;10.00;2.00;;;;;;;9.40;100.00;101936.41;5050486;28;20079;-44
2023/02/03 03:41:49;;;;;;;10.30;2.88;;;;;;;9.39;100.00;101922.91;5050250;28;20064;-44
2023/02/03 03:44:18;;;;;;;10.02;2.25;;;;;;;9.39;100.00;101929.25;5049509;28;20056;-44
2023/02/03 03:47:01;;;;;;;7.28;2.28;;;;;;;9.41;100.00;101923.41;5050832;28;20045;-45
2023/02/03 03:49:28;;;;;;;8.25;3.50;;;;;;;9.41;100.00;101923.41;5041095;28;20048;-44
2023/02/03 03:52:03;;;;;;;6.38;1.70;;;;;;;9.41;100.00;101928.94;5050268;28;20048;-44
2023/02/03 03:54:31;;;;;;;9.75;2.08;;;;;;;9.41;100.00;101940.81;5049560;28;20049;-44
2023/02/03 03:57:08;;;;;;;5.07;2.60;;;;;;;9.41;100.00;101940.81;5042626;28;20049;-44
2023/02/03 03:59:39;;;;;;;10.32;1.98;;;;;;;9.41;100.00;101924.25;5050005;28;20655;-44
2023/02/03 04:02:06;;;;;;;5.38;1.75;;;;;;;9.42;100.00;101931.41;5049877;28;20053;-46
2023/02/03 04:04:36;;;;;;;4.80;1.48;;;;;;;9.42;100.00;101933.34;5050431;28;20494;-43
2023/02/03 04:07:03;;;;;;;5.10;1.52;;;;;;;9.42;100.00;101927.81;5049661;28;20383;-44
2023/02/03 04:09:30;;;;;;;5.80;1.95;;;;;;;9.41;100.00;101937.22;5049856;28;20047;-43
2023/02/03 04:12:04;;;;;;;7.80;2.00;;;;;;;9.42;100.00;101938.88;5048514;28;20368;-44
2023/02/03 04:14:34;;;;;;;2.97;1.42;;;;;;;9.41;100.00;101928.94;5050111;28;20045;-44
2023/02/03 04:17:00;;;;;;;8.63;1.85;;;;;;;9.41;100.00;101937.22;5049589;28;20127;-44
2023/02/03 04:19:27;;;;;;;6.47;1.40;;;;;;;9.41;100.00;101927.00;5049810;28;20056;-44
2023/02/03 04:21:54;;;;;;;6.00;1.48;;;;;;;9.40;100.00;101925.34;5049938;28;20558;-46
2023/02/03 04:24:21;;;;;;;9.15;1.65;;;;;;;9.41;100.00;101921.47;5048565;28;20080;-44
2023/02/03 04:26:47;;;;;;;7.03;1.52;;;;;;;9.41;100.00;101921.47;5048089;28;20041;-44
2023/02/03 04:29:14;;;;;;;5.22;1.70;;;;;;;9.41;100.00;101910.41;5049581;28;20116;-44
2023/02/03 04:31:41;;;;;;;4.97;1.65;;;;;;;9.40;100.00;101908.78;5050099;28;20052;-43
2023/02/03 04:34:07;;;;;;;6.25;1.75;;;;;;;9.41;100.00;101921.47;5059498;28;20048;-44
2023/02/03 04:36:34;;;;;;;6.45;1.52;;;;;;;9.40;100.00;101907.97;5052132;28;20739;-45
2023/02/03 04:39:01;;;;;;;5.53;2.25;;;;;;;9.40;100.00;101911.53;5049232;28;20147;-44
2023/02/03 04:41:28;;;;;;;6.97;1.67;;;;;;;9.40;100.00;101911.53;5049073;28;20706;-43
2023/02/03 04:43:54;;;;;;;9.05;1.35;;;;;;;9.40;100.00;101916.28;5049189;28;20052;-43
2023/02/03 04:46:21;;;;;;;9.73;1.95;;;;;;;9.39;100.00;101917.38;5049669;28;20041;-44
2023/02/03 04:48:48;;;;;;;4.30;1.40;;;;;;;9.39;100.00;101922.91;5048845;28;20124;-49
2023/02/03 04:51:14;;;;;;;4.85;2.17;;;;;;;9.40;100.00;101919.03;5049056;28;20047;-44
2023/02/03 04:53:41;;;;;;;10.05;1.77;;;;;;;9.40;100.00;101907.97;5049993;28;20057;-43
2023/02/03 04:56:08;;;;;;;4.63;1.30;;;;;;;9.40;100.00;101905.22;5046941;28;20045;-46
2023/02/03 04:58:35;;;;;;;5.90;1.63;;;;;;;9.41;100.00;101901.31;5049120;28;20080;-43
2023/02/03 05:01:09;;;;;;;6.65;1.38;;;;;;;9.40;100.00;101897.72;5048257;28;20052;-43
2023/02/03 05:03:36;;;;;;;5.13;1.50;;;;;;;9.40;100.00;101902.44;5049002;28;20056;-44
2023/02/03 05:06:04;;;;;;;4.90;1.38;;;;;;;9.40;100.00;101900.47;5049127;28;20074;-44
2023/02/03 05:08:32;;;;;;;4.43;2.10;;;;;;;9.39;100.00;101914.63;5049176;28;20045;-51
2023/02/03 05:10:59;;;;;;;2.10;1.55;;;;;;;9.39;100.00;101901.63;5049935;28;20134;-43
2023/02/03 05:13:28;;;;;;;4.70;1.27;;;;;;;9.39;100.00;101914.63;5048906;28;20124;-43
2023/02/03 05:15:55;;;;;;;3.00;1.10;;;;;;;9.38;100.00;101899.97;5048753;28;20573;-43
2023/02/03 05:18:21;;;;;;;4.55;1.33;;;;;;;9.39;100.00;101918.22;5047462;28;20493;-46
2023/02/03 05:20:48;;;;;;;7.18;1.30;;;;;;;9.40;100.00;101919.03;5048588;28;20052;-43
2023/02/03 05:23:16;;;;;;;3.67;1.00;;;;;;;9.39;100.00;101918.22;5048549;28;20491;-51
2023/02/03 05:25:44;;;;;;;2.88;1.00;;;;;;;9.39;100.00;101920.16;5048912;28;20052;-44
2023/02/03 05:28:10;;;;;;;3.03;0.80;;;;;;;9.40;100.00;101924.56;5049048;28;20094;-43
2023/02/03 05:30:37;;;;;;;7.07;1.25;;;;;;;9.40;100.00;101919.03;5048567;28;20376;-43
2023/02/03 05:33:04;;;;;;;8.80;1.30;;;;;;;9.40;100.00;101924.56;5048839;28;20485;-50
2023/02/03 05:35:31;;;;;;;3.58;1.10;;;;;;;9.40;100.00;101941.94;5059712;28;20041;-44
2023/02/03 05:37:58;;;;;;;6.68;1.20;;;;;;;9.39;100.00;101945.84;5048418;28;20406;-43
2023/02/03 05:43:11;;;;;;;5.22;1.13;;;;;;;9.39;100.00;101947.78;5048202;28;20036;-45
2023/02/03 05:45:38;;;;;;;7.50;1.10;;;;;;;9.39;100.00;101956.06;5049185;28;20041;-46
2023/02/03 05:48:06;;;;;;;10.73;0.98;;;;;;;9.39;100.00;101958.84;5048223;28;20052;-45
2023/02/03 05:50:35;;;;;;;2.60;1.05;;;;;;;9.37;100.00;101961.91;5047913;28;20057;-44
2023/02/03 05:53:05;;;;;;;6.55;0.85;;;;;;;9.36;100.00;101973.28;5048253;28;20048;-44
2023/02/03 05:55:33;;;;;;;5.18;1.73;;;;;;;9.35;100.00;101974.38;5048513;28;20094;-44
2023/02/03 05:58:00;;;;;;;19.13;4.68;;;;;;;9.34;100.00;101975.53;5048074;28;20047;-49
2023/02/03 06:00:27;;;;;;;1.63;1.00;;;;;;;9.34;100.00;101981.06;5048085;28;20053;-43
2023/02/03 06:02:56;;;;;;;6.15;1.95;;;;;;;9.33;100.00;101990.47;5048534;28;20041;-44
2023/02/03 06:05:25;;;;;;;9.73;2.00;;;;;;;9.32;100.00;101983.31;5048381;28;21072;-43
2023/02/03 06:07:51;;;;;;;6.50;1.00;;;;;;;9.31;100.00;101984.44;5048990;28;20077;-43
2023/02/03 06:10:19;;;;;;;4.75;0.98;;;;;;;9.31;100.00;101987.19;5052081;28;20491;-45
2023/02/03 06:12:46;;;;;;;4.28;1.02;;;;;;;9.29;100.00;101994.97;5052362;28;20106;-48
2023/02/03 06:15:13;;;;;;;7.07;1.63;;;;;;;9.30;100.00;101988.31;5051838;28;20048;-45
2023/02/03 06:17:47;;;;;;;4.82;1.08;;;;;;;9.29;100.00;101997.75;5052314;28;20139;-44
2023/02/03 06:20:15;;;;;;;8.23;1.38;;;;;;;9.28;100.00;102012.66;5052276;28;20486;-45
2023/02/03 06:22:42;;;;;;;9.23;1.10;;;;;;;9.28;100.00;102016.25;5051629;28;20388;-44
2023/02/03 06:25:10;;;;;;;4.88;0.90;;;;;;;9.28;100.00;102015.44;5050454;28;20398;-44
2023/02/03 06:27:44;;;;;;;5.47;1.10;;;;;;;9.28;100.00;102019.03;5052088;28;20414;-47
2023/02/03 06:30:11;;;;;;;4.25;1.00;;;;;;;9.28;100.00;102020.97;5051951;28;20402;-49
2023/02/03 06:32:38;;;;;;;7.20;1.05;;;;;;;9.28;100.00;102020.97;5051431;28;20045;-44
2023/02/03 06:35:05;;;;;;;5.05;1.00;;;;;;;9.29;100.00;102019.84;5062485;28;20493;-44
2023/02/03 06:37:31;;;;;;;3.55;1.10;;;;;;;9.28;100.00;102026.50;5052156;28;20052;-48
2023/02/03 06:39:58;;;;;;;5.68;0.95;;;;;;;9.29;100.00;102028.13;5051564;28;20088;-43
2023/02/03 06:42:25;;;;;;;7.43;1.20;;;;;;;9.30;100.00;102040.81;5051448;28;20049;-44
2023/02/03 06:44:52;;;;;;;4.50;1.20;;;;;;;9.29;100.00;102031.72;5051330;28;20045;-44
2023/02/03 06:47:19;;;;;;;4.47;1.27;;;;;;;9.29;100.00;102055.78;5051404;28;20049;-45
2023/02/03 06:49:46;;;;;;;6.18;1.40;;;;;;;9.28;100.00;102059.66;5051551;28;20068;-44
2023/02/03 06:52:14;;;;;;;5.60;1.13;;;;;;;9.28;100.00;102059.66;5050882;28;20084;-45
2023/02/03 06:54:41;;;;;;;7.93;3.20;;;;;;;9.28;100.00;102059.66;5052047;28;20056;-52
2023/02/03 06:57:07;;;;;;;7.15;1.23;;;;;;;9.28;100.00;102070.72;5050916;28;20513;-43
2023/02/03 06:59:34;;;;;;;6.07;1.20;;;;;;;9.26;100.00;102071.03;5047445;28;20065;-45
2023/02/03 07:02:01;;;;;;;5.53;1.23;;;;;;;9.25;100.00;102074.06;5050331;28;20542;-43
2023/02/03 07:04:29;;;;;;;6.05;1.52;;;;;;;9.26;100.00;102072.97;5050860;28;20044;-43
2023/02/03 07:06:56;;;;;;;3.08;1.65;;;;;;;9.25;100.00;102072.13;5050763;28;20037;-43
2023/02/03 07:09:23;;;;;;;15.40;1.95;;;;;;;9.24;100.00;102064.16;5050870;28;20049;-42
2023/02/03 07:11:50;;;;;;;7.95;1.48;;;;;;;9.22;100.00;102061.69;5055606;28;20383;-43
2023/02/03 07:14:16;;;;;;;9.80;2.00;;;;;;;9.21;100.00;102048.19;5051296;28;20513;-42
2023/02/03 07:16:43;;;;;;;12.10;2.20;;;;;;;9.20;100.00;102052.88;5051401;28;20045;-43
2023/02/03 07:19:10;;;;;;;10.80;1.92;;;;;;;9.18;100.00;102061.50;5049615;28;20059;-43
2023/02/03 07:21:36;;;;;;;10.57;1.65;;;;;;;9.18;100.00;102049.63;5050574;28;20368;-42
2023/02/03 07:24:03;;;;;;;11.05;1.95;;;;;;;9.15;100.00;102042.75;5051050;28;20132;-42
2023/02/03 07:26:30;;;;;;;4.70;1.10;;;;;;;9.12;100.00;102048.88;5050734;28;20067;-43
2023/02/03 07:28:59;;;;;;;7.63;1.88;;;;;;;9.09;100.00;102046.72;5051056;28;20048;-44
2023/02/03 07:31:26;;;;;;;10.45;1.30;;;;;;;9.08;100.00;102041.50;5048690;28;20053;-42
2023/02/03 07:33:53;;;;;;;9.88;2.42;;;;;;;9.03;100.00;102042.41;5057816;28;20474;-42
2023/02/03 07:36:20;;;;;;;8.40;2.78;;;;;;;9.01;100.00;102049.34;5053331;28;20045;-49
2023/02/03 07:38:47;;;;;;;9.73;1.88;;;;;;;8.97;100.00;102053.88;5050515;28;20045;-44
2023/02/03 07:41:13;;;;;;;12.13;2.35;;;;;;;8.92;100.00;102057.50;5050082;28;20041;-44
2023/02/03 07:43:43;;;;;;;7.80;1.58;;;;;;;8.92;100.00;102068.56;5050642;28;20063;-44
2023/02/03 07:46:10;;;;;;;9.88;2.97;;;;;;;8.90;100.00;102079.09;5050067;28;20052;-43
2023/02/03 07:48:37;;;;;;;9.13;3.92;;;;;;;8.91;100.00;102085.44;5050135;28;20441;-44
2023/02/03 07:51:04;;;;;;;14.85;2.22;;;;;;;8.91;100.00;102089.03;5050114;28;20044;-42
2023/02/03 07:53:31;;;;;;;8.02;2.75;;;;;;;8.89;100.00;102096.81;5049771;28;20044;-42
2023/02/03 07:56:02;;;;;;;6.90;1.40;;;;;;;8.88;100.00;102094.31;5048709;28;20041;-43
2023/02/03 07:58:30;;;;;;;5.75;1.73;;;;;;;8.87;100.00;102098.22;5048552;28;20072;-43
2023/02/03 08:00:57;;;;;;;9.95;2.08;;;;;;;8.85;100.00;102112.31;5050234;28;20522;-42
2023/02/03 08:03:24;;;;;;;6.47;1.48;;;;;;;8.84;100.00;102113.44;5050572;28;20052;-44
2023/02/03 08:05:52;;;;;;;9.20;1.40;;;;;;;8.83;100.00;102110.97;5034987;28;20482;-46
2023/02/03 08:08:19;;;;;;;15.75;1.75;;;;;;;8.81;100.00;102110.47;5049744;28;20401;-43
2023/02/03 08:10:45;;;;;;;10.82;1.38;;;;;;;8.82;100.00;102114.84;5050505;28;20206;-47
2023/02/03 08:13:12;;;;;;;12.98;1.52;;;;;;;8.83;100.00;102131.13;5050039;28;20045;-42
2023/02/03 08:15:39;;;;;;;5.82;1.48;;;;;;;8.84;100.00;102145.78;5049318;28;20045;-49
2023/02/03 08:18:08;;;;;;;9.50;1.88;;;;;;;8.85;100.00;102139.94;5048972;28;20053;-42
2023/02/03 08:20:34;;;;;;;12.70;1.73;;;;;;;8.87;100.00;102148.72;5049812;28;20037;-47
2023/02/03 08:23:01;;;;;;;11.77;1.70;;;;;;;8.90;100.00;102159.19;5049349;28;20120;-44
2023/02/03 08:25:28;;;;;;;8.38;1.58;;;;;;;8.93;100.00;102155.00;5049811;28;20060;-43
2023/02/03 08:27:54;;;;;;;10.50;1.73;;;;;;;8.97;100.00;102164.34;5049609;28;20052;-45
2023/02/03 08:30:22;;;;;;;4.97;1.58;;;;;;;9.00;100.00;102172.03;5049693;28;20135;-42
2023/02/03 08:32:49;;;;;;;15.45;1.80;;;;;;;9.01;100.00;102182.78;5048048;28;20051;-45
2023/02/03 08:35:24;;;;;;;6.30;1.30;;;;;;;9.03;100.00;102174.19;5061493;28;20056;-42
2023/02/03 08:37:51;;;;;;;8.95;1.83;;;;;;;9.04;100.00;102182.19;5049152;28;20056;-43
2023/02/03 08:40:17;;;;;;;7.15;1.55;;;;;;;9.05;100.00;102183.81;5048978;28;20045;-51
2023/02/03 08:42:44;;;;;;;9.60;2.75;;;;;;;9.08;100.00;102185.97;5049401;28;20045;-43
2023/02/03 08:45:11;;;;;;;9.27;1.67;;;;;;;9.09;100.00;102182.09;5049340;28;20497;-43
2023/02/03 08:47:38;;;;;;;10.05;1.98;;;;;;;9.10;100.00;102189.28;5048838;28;20044;-50
2023/02/03 08:50:06;;;;;;;8.68;1.70;;;;;;;9.12;100.00;102180.69;5049730;28;20056;-44
2023/02/03 08:52:33;;;;;;;8.35;1.90;;;;;;;9.15;100.00;102183.66;5049480;28;20059;-43
2023/02/03 08:55:00;;;;;;;8.70;1.40;;;;;;;9.18;100.00;102183.06;5049317;28;20045;-43
2023/02/03 08:57:31;;;;;;;6.68;1.50;;;;;;;9.19;100.00;102176.41;5047601;28;20470;-48
2023/02/03 08:59:57;;;;;;;8.02;1.35;;;;;;;9.18;100.00;102182.25;5048912;28;20080;-44
2023/02/03 09:02:24;;;;;;;12.48;2.25;;;;;;;9.18;100.00;102185.00;5048521;28;20470;-45
2023/02/03 09:04:51;;;;;;;13.25;2.92;;;;;;;9.19;100.00;102187.47;5048688;28;20063;-43
2023/02/03 09:07:18;;;;;;;7.80;2.03;;;;;;;9.22;100.00;102191.56;5048489;28;20051;-43
2023/02/03 09:09:45;;;;;;;10.38;1.58;;;;;;;9.25;100.00;102206.72;5058915;28;20052;-43
2023/02/03 09:12:12;;;;;;;12.27;1.80;;;;;;;9.28;100.00;102217.16;5051144;28;20060;-43
2023/02/03 09:14:39;;;;;;;12.43;2.03;;;;;;;9.34;100.00;102224.28;5047180;28;20469;-44
2023/02/03 09:17:08;;;;;;;10.02;1.73;;;;;;;9.39;100.00;102221.41;5048204;28;20052;-47
2023/02/03 09:19:35;;;;;;;6.82;2.17;;;;;;;9.42;100.00;102209.75;5048432;28;20082;-44
2023/02/03 09:22:03;;;;;;;8.40;1.75;;;;;;;9.45;100.00;102211.94;5048411;28;20033;-45
2023/02/03 09:24:30;;;;;;;11.85;1.70;;;;;;;9.47;100.00;102217.97;5048519;28;20107;-44
2023/02/03 09:26:56;;;;;;;4.80;1.30;;;;;;;9.49;100.00;102235.06;5048416;28;20099;-49
2023/02/03 09:29:23;;;;;;;12.70;3.13;;;;;;;9.50;100.00;102233.97;5048418;28;20045;-43
2023/02/03 09:31:51;;;;;;;7.60;1.40;;;;;;;9.53;100.00;102245.22;5048488;28;20041;-43
2023/02/03 09:34:19;;;;;;;6.85;1.95;;;;;;;9.55;100.00;102248.53;5058914;28;20376;-44
2023/02/03 09:36:46;;;;;;;10.65;2.00;;;;;;;9.56;100.00;102244.63;5041019;28;20441;-50
2023/02/03 09:39:14;;;;;;;14.45;4.72;;;;;;;9.58;100.00;102247.09;5027107;28;20041;-44
2023/02/03 09:42:11;;;;;;;10.95;1.85;;;;;;;9.61;100.00;102257.56;5041610;28;20053;-43
2023/02/03 09:44:59;;;;;;;9.23;1.77;;;;;;;9.63;100.00;102238.72;5051560;28;20047;-45
2023/02/03 09:47:31;;;;;;;15.95;2.05;;;;;;;9.66;100.00;102254.69;5050586;28;20049;-46
2023/02/03 09:50:01;;;;;;;10.38;1.80;;;;;;;9.67;100.00;102245.25;5049278;28;20041;-45
2023/02/03 09:52:32;;;;;;;8.30;1.85;;;;;;;9.69;100.00;102254.06;5048452;28;20474;-45
2023/02/03 09:55:25;;;;;;;9.30;2.42;;;;;;;9.70;100.00;102258.50;5049855;28;20045;-44
2023/02/03 09:58:12;;;;;;;5.00;1.73;;;;;;;9.70;100.00;102258.50;5047030;28;20049;-49
2023/02/03 10:00:41;;;;;;;15.82;1.70;;;;;;;9.72;100.00;102253.47;5051952;28;20075;-48
2023/02/03 10:03:20;;;;;;;10.98;2.10;;;;;;;9.74;100.00;102265.06;5052894;28;20081;-43
2023/02/03 10:06:26;;;;;;;5.75;1.33;;;;;;;9.75;100.00;102272.22;5044762;28;20497;-44
2023/02/03 10:09:15;;;;;;;6.82;1.38;;;;;;;9.76;100.00;102266.41;5038174;28;20555;-44
2023/02/03 10:11:41;;;;;;;17.13;3.75;;;;;;;9.80;100.00;102272.97;5049659;28;20091;-45
2023/02/03 10:14:29;;;;;;;6.85;2.40;;;;;;;9.88;100.00;102265.91;5049477;28;20044;-44
2023/02/03 10:17:15;;;;;;;6.22;2.17;;;;;;;9.91;100.00;102267.25;5042837;28;20056;-44
2023/02/03 10:19:54;;;;;;;9.30;2.13;;;;;;;9.96;100.00;102264.38;5042226;28;20056;-44
2023/02/03 10:22:27;;;;;;;5.05;1.38;;;;;;;10.01;100.00;102267.88;5048738;28;20072;-45
2023/02/03 10:25:14;;;;;;;6.00;1.40;;;;;;;10.07;100.00;102272.22;5045182;28;20037;-45
2023/02/03 10:27:42;;;;;;;9.27;1.77;;;;;;;10.10;100.00;102271.59;5040640;28;20056;-45
2023/02/03 10:30:18;;;;;;;5.22;1.83;;;;;;;10.14;100.00;102267.13;5036524;28;20068;-47
2023/02/03 10:32:49;;;;;;;5.25;1.98;;;;;;;10.22;100.00;102274.72;5049335;28;20119;-45
2023/02/03 10:35:16;;;;;;;11.02;1.92;;;;;;;10.28;100.00;102272.69;5045492;28;20155;-49
2023/02/03 10:37:47;;;;;;;11.40;2.10;;;;;;;10.34;100.00;102277.81;5045871;28;20505;-45
2023/02/03 10:40:15;;;;;;;5.53;1.70;;;;;;;10.40;100.00;102271.03;5045165;28;20411;-44
2023/02/03 10:45:36;;;;;;;6.70;1.33;;;;;;;10.45;100.00;102272.09;5044010;28;20045;-48
2023/02/03 10:48:06;;;;;;;;;;;;;;;10.42;99.97;102281.00;5044844;28;20083;-44
2023/02/03 10:50:34;;;;;;;5.13;1.10;;;;;;;10.37;99.59;102277.22;5052058;28;19978;-45
2023/02/03 10:53:31;;;;;;;8.38;1.25;;;;;;;10.36;99.32;102286.63;5043901;28;20033;-43
2023/02/03 10:56:04;;;;;;;8.40;1.20;;;;;;;10.36;99.04;102285.81;5050096;28;20103;-47
2023/02/03 10:58:33;;;;;;;9.80;2.00;;;;;;;10.39;98.96;102294.34;5048768;28;20076;-44
2023/02/03 11:01:22;;;;;;;7.72;1.23;;;;;;;10.42;98.78;102300.38;5043282;28;20049;-46
2023/02/03 11:04:02;;;;;;;8.57;1.50;;;;;;;10.42;98.74;102295.66;5044777;28;20041;-45
2023/02/03 11:06:31;;;;;;;4.35;1.27;;;;;;;10.45;98.42;102289.53;5044669;28;20053;-47
2023/02/03 11:08:59;;;;;;;8.13;2.00;;;;;;;10.48;98.02;102301.94;5052520;28;20489;-47
2023/02/03 11:11:31;;;;;;;4.28;2.03;;;;;;;10.47;97.85;102297.50;5048787;28;20045;-49
2023/02/03 11:14:03;;;;;;;9.32;1.20;;;;;;;10.48;97.61;102290.84;5046804;28;20441;-44
2023/02/03 11:16:33;;;;;;;9.25;1.40;;;;;;;10.50;97.68;102297.72;5044020;28;20044;-44
2023/02/03 11:19:08;;;;;;;6.65;1.30;;;;;;;10.51;97.36;102298.56;5050587;28;20043;-45
2023/02/03 11:21:38;;;;;;;7.93;1.10;;;;;;;10.54;97.13;102284.09;5044534;28;20487;-48
2023/02/03 11:24:12;;;;;;;7.22;1.10;;;;;;;10.56;96.85;102290.16;5048811;28;20583;-45
2023/02/03 11:26:42;;;;;;;6.65;1.10;;;;;;;10.57;96.61;102289.81;5040958;28;20050;-45
2023/02/03 11:29:24;;;;;;;6.05;1.00;;;;;;;10.59;96.25;102286.75;5036794;28;20052;-45
2023/02/03 11:31:53;;;;;;;11.75;1.50;;;;;;;10.60;96.17;102288.38;5037659;28;20056;-45
2023/02/03 11:34:33;;;;;;;6.30;1.10;;;;;;;10.61;95.65;102298.34;5048953;28;20662;-45
2023/02/03 11:37:25;;;;;;;7.00;1.55;;;;;;;10.62;95.47;102300.78;5036231;28;20041;-49
2023/02/03 11:39:56;;;;;;;;;;;;;;;10.62;95.26;102297.19;5047620;28;20037;-46
2023/02/03 11:42:24;;;;;;;10.18;1.23;;;;;;;10.63;94.76;102293.31;5050514;28;19967;-46
2023/02/03 11:44:52;;;;;;;6.78;1.65;;;;;;;10.64;94.64;102292.19;5044991;28;20080;-54